Contact Info

Augusta Flying Club, Inc

KDNL 220753Z AUTO 10003KT 10SM CLR 09/03 A3027 RMK AO2 SLP247 T00940028


TAF KDNL 220529Z 2206/2306 03003KT P6SM SKC FM221400 07005KT P6SM SKC FM222200 00000KT P6SM SKC

info@augustaflyingclub.com

Send us a message